createdAt,value
2018-08-22T00:02:06.195Z,5.73
2018-08-22T00:04:34.291Z,5.93
2018-08-22T00:07:02.495Z,5.60
2018-08-22T00:09:30.739Z,5.73
2018-08-22T00:11:58.872Z,5.97
2018-08-22T00:14:27.014Z,5.90
2018-08-22T00:16:55.124Z,5.93
2018-08-22T00:19:23.291Z,5.43
2018-08-22T00:21:51.431Z,5.90
2018-08-22T00:24:19.618Z,5.40
2018-08-22T00:26:47.779Z,5.90
2018-08-22T00:29:15.918Z,6.07
2018-08-22T00:31:44.017Z,5.23
2018-08-22T00:34:12.123Z,5.80
2018-08-22T00:36:40.236Z,5.43
2018-08-22T00:39:08.713Z,5.57
2018-08-22T00:41:36.756Z,5.70
2018-08-22T00:44:04.885Z,5.97
2018-08-22T00:46:32.966Z,5.90
2018-08-22T00:49:01.066Z,5.80
2018-08-22T00:51:29.152Z,6.27
2018-08-22T00:53:57.251Z,5.93
2018-08-22T00:56:25.363Z,5.77
2018-08-22T00:58:53.501Z,5.70
2018-08-22T01:01:21.560Z,5.60
2018-08-22T01:03:49.695Z,5.97
2018-08-22T01:06:17.781Z,6.00
2018-08-22T01:08:45.908Z,5.87
2018-08-22T01:11:13.998Z,5.80
2018-08-22T01:13:42.126Z,5.80
2018-08-22T01:16:10.240Z,5.57
2018-08-22T01:18:38.388Z,5.97
2018-08-22T01:21:06.504Z,6.23
2018-08-22T01:23:34.695Z,6.00
2018-08-22T01:26:02.834Z,5.83
2018-08-22T01:28:30.923Z,6.57
2018-08-22T01:30:59.045Z,6.30
2018-08-22T01:33:27.146Z,6.17
2018-08-22T01:35:55.285Z,7.07
2018-08-22T01:38:23.397Z,7.03
2018-08-22T01:40:51.504Z,6.80
2018-08-22T01:43:19.631Z,6.23
2018-08-22T01:45:47.723Z,6.80
2018-08-22T01:48:15.868Z,6.63
2018-08-22T01:50:43.971Z,6.30
2018-08-22T01:53:12.139Z,6.70
2018-08-22T01:55:40.230Z,6.27
2018-08-22T01:58:08.356Z,6.60
2018-08-22T02:00:36.455Z,6.63
2018-08-22T02:03:04.620Z,6.73
2018-08-22T02:05:32.701Z,6.77
2018-08-22T02:08:00.790Z,6.63
2018-08-22T02:10:28.862Z,6.67
2018-08-22T02:12:56.993Z,6.60
2018-08-22T02:15:25.099Z,6.70
2018-08-22T02:17:53.213Z,6.30
2018-08-22T02:20:21.330Z,6.10
2018-08-22T02:22:49.419Z,6.63
2018-08-22T02:25:17.551Z,6.33
2018-08-22T02:27:45.601Z,5.97
2018-08-22T02:30:13.737Z,6.47
2018-08-22T02:32:41.836Z,7.13
2018-08-22T02:35:09.978Z,6.37
2018-08-22T02:37:44.822Z,6.77
2018-08-22T02:40:12.943Z,6.17
2018-08-22T02:42:41.067Z,6.67
2018-08-22T02:45:09.164Z,6.80
2018-08-22T02:47:37.355Z,6.63
2018-08-22T02:50:05.778Z,6.87
2018-08-22T02:52:33.919Z,6.67
2018-08-22T02:55:02.111Z,6.43
2018-08-22T02:57:30.277Z,6.77
2018-08-22T02:59:58.361Z,7.10
2018-08-22T03:02:26.471Z,6.53
2018-08-22T03:04:54.607Z,6.57
2018-08-22T03:07:22.700Z,7.17
2018-08-22T03:09:50.843Z,6.63
2018-08-22T03:12:18.963Z,6.57
2018-08-22T03:14:47.052Z,7.07
2018-08-22T03:17:15.137Z,7.23
2018-08-22T03:19:43.583Z,6.87
2018-08-22T03:22:11.701Z,7.10
2018-08-22T03:24:39.793Z,6.50
2018-08-22T03:27:07.899Z,7.03
2018-08-22T03:29:36.031Z,6.73
2018-08-22T03:32:04.139Z,6.37
2018-08-22T03:34:32.265Z,7.00
2018-08-22T03:37:00.405Z,6.67
2018-08-22T03:39:28.507Z,6.70
2018-08-22T03:41:56.615Z,6.83
2018-08-22T03:44:24.787Z,7.63
2018-08-22T03:46:52.940Z,7.57
2018-08-22T03:49:21.034Z,7.70
2018-08-22T03:51:49.246Z,7.17
2018-08-22T03:54:17.353Z,7.70
2018-08-22T03:56:45.441Z,6.77
2018-08-22T03:59:13.537Z,7.30
2018-08-22T04:01:41.602Z,7.43
2018-08-22T04:04:09.708Z,7.40
2018-08-22T04:06:37.782Z,6.93
2018-08-22T04:09:06.386Z,7.33
2018-08-22T04:11:34.471Z,7.00
2018-08-22T04:14:02.586Z,7.80
2018-08-22T04:16:30.742Z,6.93
2018-08-22T04:18:58.872Z,7.10
2018-08-22T04:21:27.000Z,6.67
2018-08-22T04:23:55.099Z,6.90
2018-08-22T04:26:23.172Z,7.37
2018-08-22T04:28:51.298Z,7.57
2018-08-22T04:31:19.436Z,6.80
2018-08-22T04:33:47.528Z,7.60
2018-08-22T04:36:15.652Z,6.83
2018-08-22T04:38:43.761Z,6.93
2018-08-22T04:41:11.902Z,6.83
2018-08-22T04:43:40.032Z,7.30
2018-08-22T04:46:08.080Z,7.30
2018-08-22T04:48:36.172Z,6.83
2018-08-22T04:51:04.255Z,7.77
2018-08-22T04:53:32.466Z,7.40
2018-08-22T04:56:00.622Z,7.70
2018-08-22T04:58:28.728Z,7.50
2018-08-22T05:00:56.955Z,6.70
2018-08-22T05:03:25.136Z,7.57
2018-08-22T05:05:53.401Z,6.73
2018-08-22T05:08:21.423Z,6.33
2018-08-22T05:10:49.542Z,7.50
2018-08-22T05:13:17.706Z,6.80
2018-08-22T05:15:45.780Z,7.00
2018-08-22T05:18:13.888Z,6.27
2018-08-22T05:20:42.043Z,6.43
2018-08-22T05:23:10.140Z,6.33
2018-08-22T05:25:38.288Z,6.67
2018-08-22T05:28:06.382Z,6.40
2018-08-22T05:30:34.498Z,6.50
2018-08-22T05:33:02.673Z,6.67
2018-08-22T05:35:30.902Z,6.50
2018-08-22T05:37:59.004Z,5.93
2018-08-22T05:40:27.158Z,6.00
2018-08-22T05:42:55.326Z,5.40
2018-08-22T05:45:23.476Z,5.03
2018-08-22T05:47:52.158Z,4.73
2018-08-22T05:50:21.176Z,4.90
2018-08-22T05:52:49.475Z,4.80
2018-08-22T05:55:17.646Z,4.93
2018-08-22T05:57:45.776Z,5.03
2018-08-22T06:00:13.955Z,5.00
2018-08-22T06:02:42.038Z,5.50
2018-08-22T06:05:10.226Z,5.23
2018-08-22T06:07:38.406Z,4.93
2018-08-22T06:10:06.628Z,4.67
2018-08-22T06:12:34.772Z,4.70
2018-08-22T06:15:02.977Z,4.83
2018-08-22T06:17:31.163Z,4.83
2018-08-22T06:19:59.438Z,5.27
2018-08-22T06:22:27.695Z,5.40
2018-08-22T06:24:55.822Z,5.40
2018-08-22T06:27:24.005Z,5.27
2018-08-22T06:29:52.213Z,5.73
2018-08-22T06:32:20.433Z,5.30
2018-08-22T06:34:48.627Z,4.58
2018-08-22T06:37:16.759Z,4.92
2018-08-22T06:39:44.881Z,4.50
2018-08-22T06:42:13.083Z,5.10
2018-08-22T06:44:41.180Z,4.28
2018-08-22T06:47:09.331Z,5.10
2018-08-22T06:49:37.490Z,5.30
2018-08-22T06:52:05.725Z,4.62
2018-08-22T06:54:33.863Z,5.17
2018-08-22T06:57:02.025Z,5.28
2018-08-22T06:59:30.130Z,5.30
2018-08-22T07:01:58.277Z,5.70
2018-08-22T07:04:26.404Z,5.37
2018-08-22T07:06:54.557Z,5.25
2018-08-22T07:09:22.770Z,5.37
2018-08-22T07:11:50.904Z,5.22
2018-08-22T07:14:19.044Z,5.00
2018-08-22T07:16:47.247Z,5.30
2018-08-22T07:19:15.360Z,5.37
2018-08-22T07:21:43.496Z,4.85
2018-08-22T07:24:11.631Z,5.83
2018-08-22T07:26:39.756Z,5.67
2018-08-22T07:29:07.903Z,5.42
2018-08-22T07:31:35.994Z,5.05
2018-08-22T07:34:04.275Z,4.90
2018-08-22T07:36:32.400Z,5.70
2018-08-22T07:39:00.580Z,5.75
2018-08-22T07:41:28.707Z,5.83
2018-08-22T07:43:56.980Z,6.03
2018-08-22T07:46:25.190Z,5.97
2018-08-22T07:48:53.386Z,5.40
2018-08-22T07:51:21.595Z,6.87
2018-08-22T07:53:49.669Z,5.62
2018-08-22T07:56:17.873Z,5.70
2018-08-22T07:58:46.128Z,5.33
2018-08-22T08:01:14.346Z,5.92
2018-08-22T08:03:42.473Z,6.37
2018-08-22T08:06:10.679Z,5.67
2018-08-22T08:08:38.853Z,5.45
2018-08-22T08:11:06.953Z,6.15
2018-08-22T08:13:35.109Z,5.25
2018-08-22T08:16:03.270Z,6.47
2018-08-22T08:18:31.394Z,5.75
2018-08-22T08:20:59.716Z,5.60
2018-08-22T08:23:27.826Z,5.33
2018-08-22T08:25:56.011Z,5.30
2018-08-22T08:28:24.144Z,6.05
2018-08-22T08:30:52.274Z,6.05
2018-08-22T08:33:20.394Z,5.80
2018-08-22T08:35:48.623Z,5.55
2018-08-22T08:38:16.772Z,5.62
2018-08-22T08:40:44.897Z,6.20
2018-08-22T08:43:13.052Z,5.97
2018-08-22T08:45:41.505Z,5.42
2018-08-22T08:48:09.631Z,6.20
2018-08-22T08:50:37.817Z,6.33
2018-08-22T08:53:06.004Z,6.17
2018-08-22T08:55:34.151Z,6.42
2018-08-22T08:58:02.240Z,6.40
2018-08-22T09:00:30.530Z,6.20
2018-08-22T09:02:58.717Z,6.97
2018-08-22T09:05:26.921Z,6.15
2018-08-22T09:07:55.110Z,6.20
2018-08-22T09:10:23.303Z,6.20
2018-08-22T09:12:51.608Z,6.17
2018-08-22T09:15:19.953Z,7.27
2018-08-22T09:17:48.069Z,6.93
2018-08-22T09:20:16.222Z,6.47
2018-08-22T09:22:44.381Z,6.33
2018-08-22T09:25:12.548Z,6.80
2018-08-22T09:27:40.700Z,6.43
2018-08-22T09:30:08.789Z,6.87
2018-08-22T09:32:36.933Z,6.67
2018-08-22T09:35:05.060Z,6.73
2018-08-22T09:37:33.280Z,6.77
2018-08-22T09:40:01.581Z,7.30
2018-08-22T09:42:29.680Z,7.30
2018-08-22T09:44:57.914Z,7.53
2018-08-22T09:47:26.131Z,7.03
2018-08-22T09:49:54.370Z,7.10
2018-08-22T09:52:22.524Z,6.37
2018-08-22T09:54:57.562Z,7.10
2018-08-22T09:57:26.836Z,7.33
2018-08-22T09:59:55.044Z,6.57
2018-08-22T10:02:23.315Z,6.40
2018-08-22T10:04:51.798Z,6.30
2018-08-22T10:07:20.013Z,7.23
2018-08-22T10:09:48.268Z,6.67
2018-08-22T10:12:16.475Z,6.53
2018-08-22T10:14:44.684Z,7.00
2018-08-22T10:17:12.934Z,7.70
2018-08-22T10:19:41.313Z,7.23
2018-08-22T10:22:09.401Z,7.10
2018-08-22T10:24:37.530Z,6.90
2018-08-22T10:27:05.727Z,7.07
2018-08-22T10:29:33.926Z,7.30
2018-08-22T10:32:02.324Z,6.83
2018-08-22T10:34:30.439Z,6.90
2018-08-22T10:36:58.616Z,6.73
2018-08-22T10:39:26.857Z,7.10
2018-08-22T10:44:29.681Z,7.73
2018-08-22T10:46:57.853Z,7.23
2018-08-22T10:49:26.049Z,6.47
2018-08-22T10:51:54.174Z,7.13
2018-08-22T10:54:22.294Z,7.60
2018-08-22T10:56:50.427Z,6.87
2018-08-22T10:59:18.619Z,7.27
2018-08-22T11:01:46.786Z,7.50
2018-08-22T11:04:14.877Z,7.37
2018-08-22T11:06:43.075Z,6.90
2018-08-22T11:09:11.650Z,6.50
2018-08-22T11:11:39.808Z,6.93
2018-08-22T11:14:08.135Z,6.83
2018-08-22T11:16:36.346Z,6.40
2018-08-22T11:19:04.566Z,6.10
2018-08-22T11:21:38.268Z,7.03
2018-08-22T11:24:11.844Z,6.50
2018-08-22T11:26:45.728Z,6.93
2018-08-22T11:29:19.406Z,6.23
2018-08-22T11:31:52.968Z,6.00
2018-08-22T11:34:26.694Z,5.97
2018-08-22T11:36:57.920Z,5.80
2018-08-22T11:39:26.008Z,4.77
2018-08-22T11:41:54.242Z,4.87
2018-08-22T11:44:22.348Z,5.47
2018-08-22T11:46:50.599Z,6.17
2018-08-22T11:49:18.707Z,6.23
2018-08-22T11:51:46.842Z,5.60
2018-08-22T11:54:14.956Z,5.20
2018-08-22T11:56:43.074Z,5.50
2018-08-22T11:59:11.250Z,6.17
2018-08-22T12:01:39.391Z,5.73
2018-08-22T12:04:07.850Z,5.40
2018-08-22T12:09:11.978Z,5.57
2018-08-22T12:11:41.109Z,6.10
2018-08-22T12:14:09.678Z,6.07
2018-08-22T12:16:37.941Z,5.63
2018-08-22T12:19:06.344Z,5.90
2018-08-22T12:21:35.378Z,5.87
2018-08-22T12:24:03.995Z,5.80
2018-08-22T12:26:32.141Z,6.03
2018-08-22T12:29:00.255Z,5.60
2018-08-22T12:31:28.455Z,6.10
2018-08-22T12:33:56.663Z,5.90
2018-08-22T12:36:24.812Z,5.73
2018-08-22T12:38:52.917Z,5.70
2018-08-22T12:41:21.110Z,5.70
2018-08-22T12:43:49.198Z,5.93
2018-08-22T12:46:17.314Z,5.40
2018-08-22T12:48:45.447Z,5.40
2018-08-22T12:51:13.558Z,5.90
2018-08-22T12:53:41.662Z,5.33
2018-08-22T12:56:09.881Z,5.30
2018-08-22T12:58:38.046Z,5.27
2018-08-22T13:01:06.386Z,5.50
2018-08-22T13:03:34.486Z,4.97
2018-08-22T13:06:02.643Z,5.33
2018-08-22T13:08:30.808Z,5.97
2018-08-22T13:10:59.026Z,5.97
2018-08-22T13:13:27.104Z,5.27
2018-08-22T13:15:55.227Z,6.03
2018-08-22T13:18:23.377Z,5.73
2018-08-22T13:20:51.546Z,5.23
2018-08-22T13:23:19.730Z,5.57
2018-08-22T13:25:47.933Z,5.40
2018-08-22T13:28:16.040Z,5.77
2018-08-22T13:30:44.156Z,5.23
2018-08-22T13:33:12.403Z,5.50
2018-08-22T13:35:40.539Z,5.37
2018-08-22T13:38:08.667Z,5.30
2018-08-22T13:40:36.813Z,6.03
2018-08-22T13:43:05.195Z,5.53
2018-08-22T13:45:33.357Z,5.33
2018-08-22T13:48:01.529Z,5.90
2018-08-22T13:50:29.691Z,5.40
2018-08-22T13:52:57.864Z,5.17
2018-08-22T13:55:26.041Z,5.40
2018-08-22T13:57:54.175Z,5.47
2018-08-22T14:00:22.318Z,5.47
2018-08-22T14:02:50.517Z,5.40
2018-08-22T14:05:18.682Z,5.53
2018-08-22T14:07:46.906Z,5.73
2018-08-22T14:10:15.093Z,4.93
2018-08-22T14:12:43.302Z,5.67
2018-08-22T14:15:11.495Z,5.93
2018-08-22T14:17:39.585Z,4.80
2018-08-22T14:20:07.808Z,5.43
2018-08-22T14:22:35.943Z,5.10
2018-08-22T14:25:04.116Z,4.63
2018-08-22T14:27:32.399Z,5.10
2018-08-22T14:30:00.511Z,5.43
2018-08-22T14:32:28.672Z,4.67
2018-08-22T14:34:56.866Z,6.13
2018-08-22T14:37:25.031Z,6.13
2018-08-22T14:39:53.243Z,4.90
2018-08-22T14:42:21.389Z,5.10
2018-08-22T14:44:49.556Z,4.90
2018-08-22T14:47:17.683Z,5.47
2018-08-22T14:49:45.848Z,5.43
2018-08-22T14:52:14.021Z,4.93
2018-08-22T14:54:42.165Z,4.87
2018-08-22T14:57:10.327Z,5.17
2018-08-22T14:59:38.453Z,4.97
2018-08-22T15:02:06.590Z,5.20
2018-08-22T15:04:34.696Z,4.93
2018-08-22T15:07:02.833Z,5.00
2018-08-22T15:09:30.931Z,4.93
2018-08-22T15:11:59.246Z,4.40
2018-08-22T15:14:27.393Z,4.80
2018-08-22T15:16:55.532Z,4.80
2018-08-22T15:19:23.742Z,4.90
2018-08-22T15:21:51.878Z,5.07
2018-08-22T15:24:20.080Z,5.20
2018-08-22T15:26:48.244Z,5.03
2018-08-22T15:29:16.358Z,4.97
2018-08-22T15:31:44.527Z,5.23
2018-08-22T15:34:12.687Z,5.20
2018-08-22T15:36:40.882Z,5.67
2018-08-22T15:39:10.242Z,5.30
2018-08-22T15:41:38.415Z,4.57
2018-08-22T15:44:06.613Z,5.13
2018-08-22T15:46:34.729Z,4.93
2018-08-22T15:49:02.868Z,5.73
2018-08-22T15:51:31.095Z,4.97
2018-08-22T15:54:07.978Z,4.87
2018-08-22T15:56:49.408Z,4.73
2018-08-22T15:59:17.950Z,4.93
2018-08-22T16:01:46.106Z,5.37
2018-08-22T16:04:14.240Z,5.70
2018-08-22T16:06:42.499Z,5.63
2018-08-22T16:09:15.218Z,5.43
2018-08-22T16:11:43.713Z,5.20
2018-08-22T16:14:11.837Z,5.37
2018-08-22T16:16:39.920Z,5.27
2018-08-22T16:19:08.122Z,5.43
2018-08-22T16:21:37.184Z,5.27
2018-08-22T16:24:05.352Z,5.00
2018-08-22T16:26:33.472Z,5.50
2018-08-22T16:29:01.857Z,5.40
2018-08-22T16:31:34.383Z,4.97
2018-08-22T16:34:02.588Z,6.13
2018-08-22T16:36:31.486Z,5.60
2018-08-22T16:39:00.670Z,5.37
2018-08-22T16:41:28.800Z,7.80
2018-08-22T16:43:56.952Z,13.50
2018-08-22T16:46:25.093Z,8.47
2018-08-22T16:48:54.412Z,19.50
2018-08-22T16:51:23.157Z,21.80
2018-08-22T17:00:49.951Z,7.07
2018-08-22T17:03:18.079Z,6.53
2018-08-22T17:05:46.190Z,7.30
2018-08-22T17:08:14.460Z,6.33
2018-08-22T17:10:49.830Z,5.63
2018-08-22T17:13:28.308Z,7.27
2018-08-22T17:15:57.260Z,6.10
2018-08-22T17:18:25.549Z,5.70
2018-08-22T17:20:53.658Z,4.93
2018-08-22T17:23:21.934Z,4.47
2018-08-22T17:25:49.981Z,5.40
2018-08-22T17:28:18.460Z,5.33
2018-08-22T17:30:46.540Z,5.20
2018-08-22T17:33:14.730Z,5.37
2018-08-22T17:35:43.950Z,4.90
2018-08-22T17:38:12.946Z,5.20
2018-08-22T17:40:41.925Z,4.73
2018-08-22T17:43:10.108Z,5.10
2018-08-22T17:45:39.320Z,4.97
2018-08-22T17:48:07.725Z,5.20
2018-08-22T17:50:35.818Z,5.03
2018-08-22T17:53:06.736Z,5.60
2018-08-22T17:55:34.927Z,5.43
2018-08-22T17:58:03.158Z,5.30
2018-08-22T18:00:33.166Z,5.67
2018-08-22T18:03:01.350Z,5.33
2018-08-22T18:05:29.751Z,4.87
2018-08-22T18:08:00.874Z,5.90
2018-08-22T18:10:29.192Z,5.53
2018-08-22T18:13:01.632Z,5.10
2018-08-22T18:15:29.818Z,5.63
2018-08-22T18:17:57.977Z,5.53
2018-08-22T18:20:27.616Z,4.80
2018-08-22T18:22:55.921Z,4.73
2018-08-22T18:25:24.052Z,5.60
2018-08-22T18:27:56.671Z,5.30
2018-08-22T18:30:24.897Z,5.10
2018-08-22T18:32:53.022Z,5.87
2018-08-22T18:35:21.110Z,5.30
2018-08-22T18:37:49.208Z,5.40
2018-08-22T18:40:19.925Z,5.27
2018-08-22T18:42:49.748Z,5.80
2018-08-22T18:45:18.237Z,5.00
2018-08-22T18:47:46.340Z,4.23
2018-08-22T18:50:14.452Z,4.97
2018-08-22T18:52:42.651Z,4.90
2018-08-22T18:55:10.826Z,4.70
2018-08-22T18:57:38.990Z,4.13
2018-08-22T19:00:07.890Z,4.00
2018-08-22T19:02:36.075Z,5.17
2018-08-22T19:05:17.908Z,5.40
2018-08-22T19:07:53.488Z,5.87
2018-08-22T19:10:21.749Z,5.63
2018-08-22T19:12:50.758Z,5.40
2018-08-22T19:15:18.847Z,4.90
2018-08-22T19:17:46.962Z,4.40
2018-08-22T19:20:15.159Z,4.90
2018-08-22T19:22:44.359Z,5.40
2018-08-22T19:25:12.635Z,5.53
2018-08-22T19:27:40.814Z,5.37
2018-08-22T19:30:09.923Z,5.60
2018-08-22T19:32:38.076Z,6.20
2018-08-22T19:35:06.221Z,6.00
2018-08-22T19:37:34.380Z,6.60
2018-08-22T19:40:06.187Z,6.50
2018-08-22T19:42:37.799Z,5.83
2018-08-22T19:45:07.186Z,5.67
2018-08-22T19:47:36.777Z,6.57
2018-08-22T19:50:05.241Z,6.13
2018-08-22T19:52:33.490Z,6.60
2018-08-22T19:55:02.873Z,6.50
2018-08-22T19:57:35.349Z,7.20
2018-08-22T20:00:04.962Z,6.30
2018-08-22T20:02:33.842Z,5.67
2018-08-22T20:05:02.023Z,6.03
2018-08-22T20:07:30.246Z,6.27
2018-08-22T20:09:58.374Z,5.73
2018-08-22T20:12:32.026Z,6.27
2018-08-22T20:15:00.168Z,5.90
2018-08-22T20:17:28.956Z,6.53
2018-08-22T20:19:57.093Z,6.77
2018-08-22T20:22:30.662Z,6.57
2018-08-22T20:25:00.369Z,6.03
2018-08-22T20:27:28.542Z,6.60
2018-08-22T20:30:15.304Z,7.43
2018-08-22T20:32:46.448Z,6.00
2018-08-22T20:35:18.964Z,7.10
2018-08-22T20:37:47.123Z,7.00
2018-08-22T20:40:15.315Z,6.67
2018-08-22T20:42:43.536Z,7.07
2018-08-22T20:45:13.916Z,7.10
2018-08-22T20:47:42.045Z,6.60
2018-08-22T20:50:10.216Z,6.30
2018-08-22T20:52:38.619Z,5.47
2018-08-22T20:55:07.676Z,6.80
2018-08-22T20:57:35.803Z,7.43
2018-08-22T21:00:04.595Z,7.27
2018-08-22T21:02:32.838Z,6.70
2018-08-22T21:05:01.028Z,6.47
2018-08-22T21:07:32.715Z,6.20
2018-08-22T21:10:00.900Z,6.47
2018-08-22T21:12:29.214Z,6.27
2018-08-22T21:14:57.430Z,7.30
2018-08-22T21:17:25.674Z,7.10
2018-08-22T21:19:53.845Z,7.20
2018-08-22T21:22:26.841Z,6.80
2018-08-22T21:24:57.009Z,6.40
2018-08-22T21:27:25.177Z,7.43
2018-08-22T21:29:53.543Z,7.37
2018-08-22T21:32:21.652Z,7.03
2018-08-22T21:34:49.726Z,7.07
2018-08-22T21:37:26.350Z,7.20
2018-08-22T21:39:54.693Z,6.70
2018-08-22T21:42:28.868Z,6.27
2018-08-22T21:44:57.005Z,6.63
2018-08-22T21:47:25.155Z,6.80
2018-08-22T21:49:53.309Z,6.93
2018-08-22T21:52:21.481Z,6.43
2018-08-22T21:54:49.671Z,6.20
2018-08-22T21:57:17.834Z,6.97
2018-08-22T21:59:49.741Z,6.40
2018-08-22T22:02:19.692Z,6.33
2018-08-22T22:04:47.851Z,6.87
2018-08-22T22:07:15.981Z,6.60
2018-08-22T22:09:44.114Z,6.50
2018-08-22T22:12:17.817Z,6.53
2018-08-22T22:14:46.237Z,6.53
2018-08-22T22:17:14.462Z,6.07
2018-08-22T22:19:42.609Z,6.40
2018-08-22T22:22:10.749Z,5.57
2018-08-22T22:24:43.529Z,6.23
2018-08-22T22:27:11.703Z,5.63
2018-08-22T22:29:39.827Z,5.80
2018-08-22T22:32:07.945Z,5.90
2018-08-22T22:34:36.067Z,6.17
2018-08-22T22:37:04.185Z,5.30
2018-08-22T22:39:39.037Z,6.00
2018-08-22T22:42:42.765Z,5.30
2018-08-22T22:45:10.898Z,5.67
2018-08-22T22:47:39.025Z,5.70
2018-08-22T22:50:07.131Z,5.50
2018-08-22T22:52:36.875Z,5.70
2018-08-22T22:55:06.049Z,4.97
2018-08-22T22:57:35.101Z,5.40
2018-08-22T23:00:03.707Z,6.07
2018-08-22T23:02:32.547Z,5.67
2018-08-22T23:05:01.185Z,5.57
2018-08-22T23:07:31.405Z,5.73
2018-08-22T23:10:00.626Z,5.90
2018-08-22T23:13:00.517Z,6.20
2018-08-22T23:15:29.736Z,7.80
2018-08-22T23:17:59.959Z,7.10
2018-08-22T23:20:30.587Z,6.80
2018-08-22T23:22:58.697Z,6.60
2018-08-22T23:25:27.124Z,7.17
2018-08-22T23:27:55.331Z,6.47
2018-08-22T23:30:28.907Z,7.20
2018-08-22T23:32:57.088Z,6.50
2018-08-22T23:35:26.268Z,5.87
2018-08-22T23:37:56.413Z,6.87
2018-08-22T23:40:25.702Z,6.50
2018-08-22T23:42:54.025Z,6.83
2018-08-22T23:45:22.268Z,6.30
2018-08-22T23:47:50.482Z,6.10
2018-08-22T23:50:18.593Z,6.63
2018-08-22T23:52:57.268Z,5.80
2018-08-22T23:55:25.942Z,6.63
2018-08-22T23:57:55.320Z,6.97
